createdAt,value
2022-11-13T00:00:46.518Z,25
2022-11-13T00:02:47.829Z,25
2022-11-13T00:04:49.764Z,25
2022-11-13T00:08:53.004Z,25
2022-11-13T00:10:54.201Z,25
2022-11-13T00:12:55.488Z,25
2022-11-13T00:14:57.353Z,25
2022-11-13T00:19:00.145Z,25
2022-11-13T00:21:01.133Z,25
2022-11-13T00:25:04.452Z,25
2022-11-13T00:29:07.096Z,25
2022-11-13T00:31:08.959Z,25
2022-11-13T00:33:10.374Z,25
2022-11-13T00:35:12.104Z,25
2022-11-13T00:37:14.018Z,25
2022-11-13T00:39:15.431Z,25
2022-11-13T00:41:16.513Z,25
2022-11-13T00:43:18.140Z,25
2022-11-13T00:45:19.384Z,25
2022-11-13T00:47:21.215Z,25
2022-11-13T00:51:24.679Z,25
2022-11-13T00:53:25.891Z,25
2022-11-13T00:55:27.132Z,25
2022-11-13T00:57:28.509Z,25
2022-11-13T01:01:32.183Z,25
2022-11-13T01:03:33.627Z,25
2022-11-13T01:07:36.997Z,25
2022-11-13T01:11:39.462Z,25
2022-11-13T01:13:41.443Z,25
2022-11-13T01:15:42.990Z,25
2022-11-13T01:17:44.942Z,25
2022-11-13T01:23:49.429Z,25
2022-11-13T01:25:50.806Z,25
2022-11-13T01:27:52.126Z,25
2022-11-13T01:29:53.897Z,25
2022-11-13T01:33:57.456Z,25
2022-11-13T01:35:59.281Z,25
2022-11-13T01:38:00.349Z,25
2022-11-13T01:40:02.243Z,25
2022-11-13T01:44:05.975Z,25
2022-11-13T01:46:07.405Z,25
2022-11-13T01:50:10.321Z,25
2022-11-13T01:54:13.572Z,25
2022-11-13T01:56:15.334Z,25
2022-11-13T02:00:18.103Z,25
2022-11-13T02:04:21.171Z,25
2022-11-13T02:06:22.540Z,25
2022-11-13T02:10:25.991Z,25
2022-11-13T02:12:27.403Z,25
2022-11-13T02:14:29.222Z,25
2022-11-13T02:16:30.496Z,25
2022-11-13T02:22:34.847Z,25
2022-11-13T02:24:37.754Z,25
2022-11-13T02:26:38.527Z,25
2022-11-13T02:28:39.898Z,25
2022-11-13T02:32:42.258Z,25
2022-11-13T02:36:44.960Z,25
2022-11-13T02:38:46.099Z,25
2022-11-13T02:42:49.324Z,25
2022-11-13T02:44:50.916Z,25
2022-11-13T02:46:52.865Z,25
2022-11-13T02:48:54.588Z,25
2022-11-13T02:50:56.304Z,25
2022-11-13T02:52:57.738Z,25
2022-11-13T02:54:59.532Z,25
2022-11-13T02:57:01.089Z,25
2022-11-13T02:59:02.255Z,25
2022-11-13T03:01:03.665Z,25
2022-11-13T03:03:04.815Z,25
2022-11-13T03:05:11.730Z,25
2022-11-13T03:07:07.542Z,25
2022-11-13T03:09:08.649Z,25
2022-11-13T03:11:10.542Z,25
2022-11-13T03:15:14.427Z,25
2022-11-13T03:17:16.339Z,25
2022-11-13T03:19:17.917Z,25
2022-11-13T03:21:19.113Z,25
2022-11-13T03:25:22.663Z,25
2022-11-13T03:27:24.214Z,25
2022-11-13T03:29:25.387Z,25
2022-11-13T03:31:26.759Z,25
2022-11-13T03:33:28.155Z,25
2022-11-13T03:35:31.306Z,25
2022-11-13T03:37:31.372Z,25
2022-11-13T03:41:34.596Z,25
2022-11-13T03:43:35.760Z,25
2022-11-13T03:45:37.398Z,25
2022-11-13T03:47:39.393Z,25
2022-11-13T03:49:41.426Z,25
2022-11-13T03:51:43.161Z,25
2022-11-13T03:53:44.079Z,25
2022-11-13T03:57:46.998Z,25
2022-11-13T03:59:48.907Z,25
2022-11-13T04:01:50.780Z,25
2022-11-13T04:03:52.731Z,25
2022-11-13T04:07:56.308Z,25
2022-11-13T04:09:58.128Z,25
2022-11-13T04:14:01.188Z,25
2022-11-13T04:16:03.006Z,25
2022-11-13T04:18:04.374Z,25
2022-11-13T04:20:06.099Z,25
2022-11-13T04:22:07.771Z,25
2022-11-13T04:24:09.511Z,25
2022-11-13T04:30:14.436Z,25
2022-11-13T04:32:16.034Z,25
2022-11-13T04:34:17.834Z,25
2022-11-13T04:36:19.470Z,25
2022-11-13T04:40:22.457Z,25
2022-11-13T04:42:23.992Z,25
2022-11-13T04:44:25.307Z,25
2022-11-13T04:46:37.107Z,25
2022-11-13T04:50:30.863Z,25
2022-11-13T04:52:31.918Z,25
2022-11-13T04:54:33.574Z,25
2022-11-13T04:56:35.170Z,25
2022-11-13T04:58:36.866Z,25
2022-11-13T05:00:38.434Z,25
2022-11-13T05:02:39.988Z,25
2022-11-13T05:04:41.094Z,25
2022-11-13T05:06:42.976Z,25
2022-11-13T05:08:44.833Z,25
2022-11-13T05:10:46.713Z,25
2022-11-13T05:12:48.416Z,25
2022-11-13T05:14:49.497Z,25
2022-11-13T05:18:52.323Z,25
2022-11-13T05:22:55.531Z,25
2022-11-13T05:24:57.217Z,25
2022-11-13T05:26:58.587Z,25
2022-11-13T05:29:00.348Z,25
2022-11-13T05:33:03.836Z,25
2022-11-13T05:35:05.187Z,25
2022-11-13T05:37:07.179Z,25
2022-11-13T05:39:08.959Z,25
2022-11-13T05:41:10.894Z,25
2022-11-13T05:43:12.919Z,25
2022-11-13T05:45:14.713Z,25
2022-11-13T05:47:15.754Z,360
2022-11-13T05:49:17.606Z,360
2022-11-13T05:51:19.053Z,360
2022-11-13T05:53:20.251Z,360
2022-11-13T05:55:23.433Z,360
2022-11-13T05:57:22.975Z,360
2022-11-13T05:59:24.723Z,360
2022-11-13T06:01:26.250Z,360
2022-11-13T06:04:11.725Z,360
2022-11-13T06:06:13.298Z,360
2022-11-13T06:10:16.170Z,360
2022-11-13T06:12:17.501Z,360
2022-11-13T06:14:18.900Z,360
2022-11-13T06:16:20.563Z,360
2022-11-13T06:18:26.244Z,360
2022-11-13T06:20:23.530Z,360
2022-11-13T06:22:25.522Z,360
2022-11-13T06:24:27.109Z,360
2022-11-13T06:26:28.278Z,360
2022-11-13T06:28:29.884Z,360
2022-11-13T06:30:30.852Z,360
2022-11-13T06:32:32.301Z,360
2022-11-13T06:34:33.736Z,360
2022-11-13T06:36:35.400Z,360
2022-11-13T06:38:36.891Z,360
2022-11-13T06:42:40.119Z,360
2022-11-13T06:44:41.874Z,360
2022-11-13T06:48:45.672Z,360
2022-11-13T06:52:49.291Z,360
2022-11-13T06:54:50.454Z,360
2022-11-13T06:56:52.385Z,360
2022-11-13T06:58:54.322Z,360
2022-11-13T07:00:55.897Z,360
2022-11-13T07:02:57.468Z,360
2022-11-13T07:04:59.403Z,360
2022-11-13T07:07:00.560Z,360
2022-11-13T07:09:02.063Z,360
2022-11-13T07:11:03.090Z,360
2022-11-13T07:13:04.190Z,360
2022-11-13T07:15:05.521Z,360
2022-11-13T07:17:10.631Z,360
2022-11-13T07:19:08.506Z,360
2022-11-13T07:21:10.459Z,360
2022-11-13T07:23:11.802Z,360
2022-11-13T07:25:13.042Z,360
2022-11-13T07:27:14.405Z,360
2022-11-13T07:29:15.814Z,360
2022-11-13T07:31:17.215Z,360
2022-11-13T07:35:20.831Z,360
2022-11-13T07:37:22.259Z,360
2022-11-13T07:39:23.397Z,360
2022-11-13T07:41:25.343Z,360
2022-11-13T07:43:26.761Z,360
2022-11-13T07:45:28.404Z,360
2022-11-13T07:47:29.644Z,360
2022-11-13T07:49:31.250Z,360
2022-11-13T07:51:33.170Z,360
2022-11-13T07:53:34.588Z,360
2022-11-13T07:55:36.096Z,360
2022-11-13T07:57:37.803Z,360
2022-11-13T07:59:39.532Z,360
2022-11-13T08:01:40.760Z,360
2022-11-13T08:03:42.628Z,360
2022-11-13T08:07:50.083Z,360
2022-11-13T08:09:47.282Z,360
2022-11-13T08:11:48.627Z,360
2022-11-13T08:13:50.580Z,360
2022-11-13T08:17:53.181Z,360
2022-11-13T08:19:55.177Z,360
2022-11-13T08:21:56.752Z,360
2022-11-13T08:23:57.985Z,360
2022-11-13T08:25:59.592Z,360
2022-11-13T08:28:01.162Z,360
2022-11-13T08:30:02.877Z,360
2022-11-13T08:34:07.311Z,360
2022-11-13T08:36:09.195Z,360
2022-11-13T08:38:10.582Z,360
2022-11-13T08:40:12.086Z,360
2022-11-13T08:42:13.686Z,360
2022-11-13T08:46:16.604Z,360
2022-11-13T08:48:17.912Z,360
2022-11-13T08:50:19.821Z,360
2022-11-13T08:52:21.502Z,360
2022-11-13T08:54:22.709Z,360
2022-11-13T08:56:24.084Z,360
2022-11-13T09:00:26.734Z,360
2022-11-13T09:02:28.652Z,360
2022-11-13T09:04:30.230Z,360
2022-11-13T09:06:32.589Z,360
2022-11-13T09:10:35.463Z,360
2022-11-13T09:12:37.180Z,360
2022-11-13T09:14:38.372Z,360
2022-11-13T09:16:39.614Z,360
2022-11-13T09:20:41.968Z,360
2022-11-13T09:22:42.972Z,360
2022-11-13T09:24:44.431Z,358
2022-11-13T09:26:46.099Z,358
2022-11-13T09:28:47.297Z,353
2022-11-13T09:32:50.484Z,353
2022-11-13T09:34:51.610Z,353
2022-11-13T09:36:53.380Z,353
2022-11-13T09:38:55.147Z,330
2022-11-13T09:42:58.286Z,329
2022-11-13T09:44:59.766Z,329
2022-11-13T09:49:02.152Z,329
2022-11-13T09:53:04.678Z,329
2022-11-13T09:55:05.632Z,329
2022-11-13T09:59:08.748Z,330
2022-11-13T10:03:11.081Z,329
2022-11-13T10:05:12.348Z,330
2022-11-13T10:09:15.666Z,330
2022-11-13T10:11:16.663Z,329
2022-11-13T10:17:21.239Z,330
2022-11-13T10:19:22.372Z,330
2022-11-13T10:21:23.418Z,330
2022-11-13T10:23:24.739Z,329
2022-11-13T10:25:26.446Z,330
2022-11-13T10:27:28.161Z,330
2022-11-13T10:31:31.165Z,330
2022-11-13T10:33:32.477Z,330
2022-11-13T10:35:34.148Z,330
2022-11-13T10:37:35.889Z,330
2022-11-13T10:41:38.534Z,330
2022-11-13T10:43:39.739Z,329
2022-11-13T10:45:41.138Z,329
2022-11-13T10:48:02.926Z,331
2022-11-13T10:49:44.066Z,331
2022-11-13T10:51:45.678Z,328
2022-11-13T10:53:47.275Z,329
2022-11-13T10:55:48.363Z,329
2022-11-13T10:57:52.585Z,329
2022-11-13T10:59:51.371Z,329
2022-11-13T11:01:53.250Z,329
2022-11-13T11:03:54.325Z,328
2022-11-13T11:05:55.520Z,329
2022-11-13T11:07:57.043Z,329
2022-11-13T11:09:58.434Z,360
2022-11-13T11:14:01.189Z,56
2022-11-13T11:16:03.100Z,360
2022-11-13T11:20:06.256Z,111
2022-11-13T11:26:11.181Z,157
2022-11-13T11:28:12.506Z,157
2022-11-13T11:30:13.435Z,156
2022-11-13T11:36:17.427Z,360
2022-11-13T11:38:18.808Z,95
2022-11-13T11:42:21.875Z,145
2022-11-13T11:46:24.647Z,125
2022-11-13T11:48:26.686Z,9
2022-11-13T11:50:27.924Z,11
2022-11-13T11:52:28.833Z,12
2022-11-13T11:56:31.429Z,15
2022-11-13T11:58:32.756Z,15
2022-11-13T12:02:36.179Z,359
2022-11-13T12:06:39.220Z,360
2022-11-13T12:08:40.088Z,360
2022-11-13T12:12:43.445Z,60
2022-11-13T12:16:46.859Z,94
2022-11-13T12:18:48.163Z,94
2022-11-13T12:22:51.531Z,22
2022-11-13T12:24:52.985Z,22
2022-11-13T12:26:54.297Z,75
2022-11-13T12:28:55.380Z,85
2022-11-13T12:34:59.784Z,96
2022-11-13T12:39:02.761Z,101
2022-11-13T12:41:04.080Z,87
2022-11-13T12:45:07.339Z,97
2022-11-13T12:49:09.955Z,97
2022-11-13T12:51:55.214Z,82
2022-11-13T12:53:56.182Z,90
2022-11-13T12:55:57.163Z,92
2022-11-13T12:57:58.826Z,113
2022-11-13T13:00:00.369Z,29
2022-11-13T13:02:01.982Z,360
2022-11-13T13:04:03.194Z,360
2022-11-13T13:06:04.398Z,99
2022-11-13T13:08:06.150Z,99
2022-11-13T13:10:07.788Z,114
2022-11-13T13:12:08.977Z,103
2022-11-13T13:14:10.154Z,101
2022-11-13T13:16:11.771Z,104
2022-11-13T13:18:12.905Z,104
2022-11-13T13:22:15.510Z,103
2022-11-13T13:24:17.256Z,100
2022-11-13T13:28:19.453Z,92
2022-11-13T13:32:22.419Z,26
2022-11-13T13:34:23.549Z,111
2022-11-13T13:36:25.074Z,91
2022-11-13T13:38:26.927Z,104
2022-11-13T13:42:29.479Z,127
2022-11-13T13:44:30.602Z,127
2022-11-13T13:46:31.492Z,127
2022-11-13T13:48:33.223Z,127
2022-11-13T13:54:37.275Z,127
2022-11-13T13:56:38.324Z,66
2022-11-13T13:58:39.735Z,70
2022-11-13T14:00:53.440Z,70
2022-11-13T14:04:43.480Z,118
2022-11-13T14:06:45.267Z,99
2022-11-13T14:08:46.220Z,83
2022-11-13T14:10:47.230Z,83
2022-11-13T14:14:50.727Z,95
2022-11-13T14:16:52.078Z,96
2022-11-13T14:20:54.212Z,97
2022-11-13T14:24:57.158Z,96
2022-11-13T14:26:58.237Z,96
2022-11-13T14:31:00.601Z,96
2022-11-13T14:35:03.819Z,96
2022-11-13T14:37:04.839Z,94
2022-11-13T14:39:06.213Z,360
2022-11-13T14:41:07.588Z,360
2022-11-13T14:43:08.604Z,360
2022-11-13T14:45:10.014Z,360
2022-11-13T14:47:11.402Z,118
2022-11-13T14:49:12.493Z,118
2022-11-13T14:51:13.826Z,118
2022-11-13T14:53:14.745Z,117
2022-11-13T14:55:16.071Z,117
2022-11-13T14:57:17.344Z,117
2022-11-13T14:59:19.936Z,118
2022-11-13T15:03:21.567Z,111
2022-11-13T15:05:23.368Z,111
2022-11-13T15:09:25.953Z,94
2022-11-13T15:13:29.631Z,360
2022-11-13T15:15:30.364Z,360
2022-11-13T15:17:31.708Z,360
2022-11-13T15:19:33.455Z,360
2022-11-13T15:23:35.860Z,360
2022-11-13T15:25:37.080Z,360
2022-11-13T15:27:42.830Z,360
2022-11-13T15:29:39.388Z,360
2022-11-13T15:33:42.952Z,360
2022-11-13T15:35:44.539Z,360
2022-11-13T15:37:45.496Z,360
2022-11-13T15:39:46.895Z,360
2022-11-13T15:41:48.438Z,360
2022-11-13T15:45:51.452Z,360
2022-11-13T15:47:52.613Z,360
2022-11-13T15:50:10.165Z,360
2022-11-13T15:51:55.375Z,360
2022-11-13T15:55:57.466Z,360
2022-11-13T15:57:59.039Z,360
2022-11-13T16:02:02.126Z,360
2022-11-13T16:06:04.575Z,360
2022-11-13T16:08:05.885Z,360
2022-11-13T16:12:08.745Z,360
2022-11-13T16:16:11.366Z,360
2022-11-13T16:18:13.219Z,360
2022-11-13T16:22:15.382Z,360
2022-11-13T16:24:19.887Z,360
2022-11-13T16:26:18.646Z,360
2022-11-13T16:28:19.707Z,360
2022-11-13T16:34:24.761Z,360
2022-11-13T16:36:26.168Z,360
2022-11-13T16:38:27.858Z,360
2022-11-13T16:40:28.871Z,360
2022-11-13T16:44:31.733Z,360
2022-11-13T16:46:33.768Z,360
2022-11-13T16:48:34.863Z,360
2022-11-13T16:50:36.690Z,360
2022-11-13T16:54:39.544Z,360
2022-11-13T16:56:40.838Z,360
2022-11-13T16:58:42.033Z,360
2022-11-13T17:00:43.167Z,360
2022-11-13T17:02:44.914Z,360
2022-11-13T17:04:46.178Z,360
2022-11-13T17:06:47.218Z,360
2022-11-13T17:08:48.735Z,360
2022-11-13T17:10:49.843Z,360
2022-11-13T17:12:51.746Z,360
2022-11-13T17:14:53.672Z,360
2022-11-13T17:16:55.403Z,360
2022-11-13T17:18:56.461Z,360
2022-11-13T17:20:57.469Z,360
2022-11-13T17:22:59.174Z,360
2022-11-13T17:27:01.951Z,360
2022-11-13T17:29:03.006Z,360
2022-11-13T17:31:04.694Z,360
2022-11-13T17:33:06.502Z,360
2022-11-13T17:37:09.295Z,360
2022-11-13T17:39:10.891Z,360
2022-11-13T17:41:12.308Z,360
2022-11-13T17:43:14.164Z,360
2022-11-13T17:47:16.832Z,360
2022-11-13T17:49:18.300Z,360
2022-11-13T17:51:20.155Z,360
2022-11-13T17:53:22.125Z,360
2022-11-13T17:55:23.712Z,360
2022-11-13T17:57:26.968Z,360
2022-11-13T17:59:26.564Z,360
2022-11-13T18:01:28.400Z,360
2022-11-13T18:03:29.772Z,360
2022-11-13T18:05:30.494Z,360
2022-11-13T18:09:33.517Z,360
2022-11-13T18:11:35.232Z,360
2022-11-13T18:13:36.813Z,360
2022-11-13T18:15:38.281Z,360
2022-11-13T18:19:41.368Z,360
2022-11-13T18:21:43.011Z,360
2022-11-13T18:25:45.786Z,360
2022-11-13T18:29:48.757Z,360
2022-11-13T18:31:49.838Z,360
2022-11-13T18:33:50.871Z,360
2022-11-13T18:35:51.887Z,360
2022-11-13T18:39:54.865Z,360
2022-11-13T18:41:55.992Z,360
2022-11-13T18:45:59.017Z,360
2022-11-13T18:48:00.828Z,360
2022-11-13T18:50:02.415Z,360
2022-11-13T18:52:04.035Z,360
2022-11-13T18:56:06.854Z,360
2022-11-13T18:58:08.206Z,360
2022-11-13T19:00:09.319Z,360
2022-11-13T19:02:10.653Z,360
2022-11-13T19:04:24.286Z,360
2022-11-13T19:08:15.679Z,360
2022-11-13T19:12:18.229Z,360
2022-11-13T19:14:19.771Z,360
2022-11-13T19:18:22.322Z,360
2022-11-13T19:22:25.605Z,360
2022-11-13T19:24:26.810Z,360
2022-11-13T19:26:28.682Z,360
2022-11-13T19:28:30.407Z,360
2022-11-13T19:30:31.758Z,360
2022-11-13T19:32:33.128Z,360
2022-11-13T19:34:34.350Z,360
2022-11-13T19:35:18.260Z,360
2022-11-13T19:37:19.783Z,360
2022-11-13T19:39:21.178Z,360
2022-11-13T19:41:22.984Z,360
2022-11-13T19:45:25.800Z,360
2022-11-13T19:47:27.219Z,360
2022-11-13T19:51:30.316Z,360
2022-11-13T19:55:33.340Z,360
2022-11-13T19:57:35.312Z,360
2022-11-13T19:59:37.286Z,360
2022-11-13T20:01:39.159Z,360
2022-11-13T20:03:41.054Z,360
2022-11-13T20:05:42.105Z,360
2022-11-13T20:07:44.093Z,360
2022-11-13T20:09:45.898Z,360
2022-11-13T20:11:47.694Z,360
2022-11-13T20:13:49.046Z,360
2022-11-13T20:15:50.681Z,360
2022-11-13T20:17:52.166Z,360
2022-11-13T20:19:53.963Z,360
2022-11-13T20:21:55.543Z,360
2022-11-13T20:23:57.025Z,360
2022-11-13T20:28:00.821Z,360
2022-11-13T20:30:02.702Z,360
2022-11-13T20:34:05.848Z,360
2022-11-13T20:38:08.104Z,360
2022-11-13T20:40:09.896Z,360
2022-11-13T20:42:11.899Z,360
2022-11-13T20:44:13.238Z,360
2022-11-13T20:46:14.786Z,360
2022-11-13T20:48:16.333Z,360
2022-11-13T20:50:17.933Z,360
2022-11-13T20:52:19.043Z,360
2022-11-13T20:54:20.682Z,360
2022-11-13T20:56:22.307Z,360
2022-11-13T20:58:23.983Z,360
2022-11-13T21:00:25.691Z,360
2022-11-13T21:02:26.865Z,360
2022-11-13T21:04:28.410Z,360
2022-11-13T21:06:29.784Z,360
2022-11-13T21:10:33.341Z,360
2022-11-13T21:12:34.843Z,360
2022-11-13T21:14:36.278Z,360
2022-11-13T21:16:37.597Z,360
2022-11-13T21:20:40.163Z,360
2022-11-13T21:22:41.648Z,360
2022-11-13T21:24:43.595Z,360
2022-11-13T21:26:44.887Z,360
2022-11-13T21:30:47.714Z,360
2022-11-13T21:32:49.137Z,360
2022-11-13T21:34:50.222Z,360
2022-11-13T21:36:52.172Z,360
2022-11-13T21:42:56.822Z,360
2022-11-13T21:44:58.515Z,360
2022-11-13T21:46:59.562Z,360
2022-11-13T21:49:01.134Z,360
2022-11-13T21:53:04.743Z,360
2022-11-13T21:55:06.645Z,360
2022-11-13T21:57:08.279Z,360
2022-11-13T21:59:09.601Z,360
2022-11-13T22:03:13.094Z,360
2022-11-13T22:05:14.159Z,360
2022-11-13T22:09:16.618Z,360
2022-11-13T22:13:19.530Z,360
2022-11-13T22:15:21.412Z,360
2022-11-13T22:19:27.803Z,360
2022-11-13T22:23:27.908Z,360
2022-11-13T22:25:29.702Z,360
2022-11-13T22:29:32.543Z,360
2022-11-13T22:31:34.469Z,360
2022-11-13T22:35:38.065Z,360
2022-11-13T22:37:39.509Z,360
2022-11-13T22:39:41.131Z,360
2022-11-13T22:41:42.734Z,360
2022-11-13T22:45:45.787Z,360
2022-11-13T22:47:47.456Z,360
2022-11-13T22:51:50.124Z,360
2022-11-13T22:55:52.742Z,360
2022-11-13T22:57:54.068Z,360
2022-11-13T23:01:57.907Z,360
2022-11-13T23:06:00.890Z,360
2022-11-13T23:08:01.959Z,360
2022-11-13T23:12:04.791Z,360
2022-11-13T23:14:06.435Z,360
2022-11-13T23:16:07.777Z,360
2022-11-13T23:18:09.887Z,360
2022-11-13T23:20:10.787Z,360
2022-11-13T23:22:12.021Z,360
2022-11-13T23:24:14.035Z,360
2022-11-13T23:26:15.593Z,360
2022-11-13T23:28:17.440Z,360
2022-11-13T23:30:19.386Z,360
2022-11-13T23:34:38.684Z,360
2022-11-13T23:36:23.651Z,360
2022-11-13T23:38:25.610Z,360
2022-11-13T23:40:26.915Z,360
2022-11-13T23:44:29.466Z,360
2022-11-13T23:46:31.294Z,360
2022-11-13T23:48:32.978Z,360
2022-11-13T23:50:34.041Z,360
2022-11-13T23:52:35.351Z,360
2022-11-13T23:54:36.672Z,360
2022-11-13T23:56:37.895Z,360
2022-11-13T23:58:39.050Z,360
